LiveATC.Net - Listen to live air traffic control over the Internet!

Find LiveATC Audio Streams


Airport/ARTCC Code

Frequency Search
(e.g., 124.400, 128.75)
Site-wide search
 


Browse LiveATC Feeds
Top 50 LiveATC Feeds
Bad Weather Areas

LiveATC FAQ
Offer a LiveATC Feed
Contact LiveATC.net
Press Inquiries

LiveATC on iPhone
LiveATC on Android

Windows Phone
Windows 8/10

LiveATC Mobile
(Mobile browser)

ATC Audio Archives
Interesting Recordings

LiveATC Forums

Home Page
About LiveATC.net
Make a Donation
Terms of Use
Privacy Policy

Canadian Air Freqs

AIRMETs/SIGMETs

FAA Airport Status
Nat'l Airspace Status
Arrival Demand Charts


Server Software By:
Icecast.org
Liquidsoap


Current Potentially Bad Weather Airports
(updated every 30 minutes - sorted alphabetically by ICAO code)



This page lists LiveATC.net airport areas that may be interesting to listen to because of challenging flying (weather) conditions. Challenging weather conditions include low ceilings, limited visibility, high or gusty winds, or thunderstorms.

Updated: Wed Oct 17 01:40:01 UTC 2018
Click on airport name to go to that airport area's feeds.

51FL/KCDK/KCTY/X60 CTAF Chiefland Sky Ranch Airport (Chiefland, US-FL)
kctyNearest METAR:
KCTY 170115Z AUTO 30003KT 3 1/2SM BR CLR 25/24 A3010 RMK AO2 T02510235
CYQT Ground/Tower Thunder Bay Airport (Thunder Bay, CA-ON)
cyqtNearest METAR:
CYQT 170100Z 28009KT 15SM -SN SCT036 BKN049 01/M04 A2992 RMK SC3SC4 SLP144
CYYR Gander Center Goose Bay Airport/CFB Goose Bay (Goose Bay, CA-NL)
WX MAP UNAVAILABLENearest METAR:
CYYR 170126Z 32014KT 4SM -SN FEW008 SCT012 BKN017 OVC025 00/M01 A2930 RMK SF2SF2SC3SC2 SLP923
CYYT Gnd/Twr/Gander Center St. John's International Airport (St. John's, CA-NL)
WX MAP UNAVAILABLENearest METAR:
CYYT 170100Z 26033G46KT 15SM BKN045 08/04 A2940 RMK SC6 SLP961
EFKK Tower Kokkola-Pietarsaari Airport (Kronoby, Finland)
WX MAP UNAVAILABLENearest METAR:
EFKK 170120Z AUTO 17003KT 0450 FG VV002 01/01 Q1019
EFKU Tower/Approach Kuopio Airport (Siilinjarvi, Finland)
WX MAP UNAVAILABLENearest METAR:
EFKU 170120Z AUTO VRB01KT 0050 R33/0550U FG VV001 02/02 Q1021
ENCN Tower/Approach Kristiansand Airport - Kjevik (Kristiansand, Norway)
WX MAP UNAVAILABLENearest METAR:
ENCN 170120Z AUTO 04003KT 1000 R03/1500N R21/P2000N +DZ VV004 11/11 Q1014
ENGM Approach Oslo Gardermoen Airport (Oslo, Norway)
WX MAP UNAVAILABLENearest METAR:
ENGM 170120Z VRB01KT 0600 R19R/0600N R01R/0900U FG VV001 06/06 Q1015
ENOR Sector 8 Moss Airport - Rygge (Moss, Norway)
WX MAP UNAVAILABLENearest METAR:
ENRY 170120Z AUTO 13002KT 0800NDV R12/P2000N R30/P2000N VV000 09/08 Q1016
ENTO Tower/App Sandefjord Airport - Torp (Sandefjord, Norway)
WX MAP UNAVAILABLENearest METAR:
ENTO 170120Z AUTO 04002KT 0350 R18/P2000N R36/1100N FG VV004 08/08 Q1015
ESGG Gnd/Twr/Control Landvetter Airport (Gothenburg, Sweden)
WX MAP UNAVAILABLENearest METAR:
ESGG 170120Z 19010KT 2700 BR OVC003 12/11 Q1017
KABY Ground/Tower Southwest Georgia Regional Airport (Albany, US-GA)
kabyNearest METAR:
KABY 170125Z AUTO 16006KT 10SM BKN046 27/22 A3012 RMK AO2 LTG DSNT E-SW T02670222 $
KBTR/KHZR/L38 Del/Gnd/Twr/App/CTAF Baton Rouge Metropolitan Airport - Ryan Field (Baton Rouge, US-LA)
kbtrNearest METAR:
KBTR 170053Z 02007KT 9SM OVC007 20/19 A3009 RMK AO2 SLP187 T02000189
KBTR/KHZR/L38 Del/Gnd/Twr/App/CTAF Baton Rouge Metropolitan Airport - Ryan Field (Baton Rouge, US-LA)
khzrNearest METAR:
KHZR 170057Z AUTO 03007KT 10SM OVC006 18/17 A3010 RMK AO2
KCFD CTAF/App Coulter Field Airport (Bryan, US-TX)
kcfdNearest METAR:
KCFD 170115Z AUTO 01007KT 10SM OVC006 11/11 A3019 RMK AO2 T01120112
KCHA Twr/App Lovell Field Airport (Chattanooga, US-TN)
kchaNearest METAR:
KCHA 170119Z 00000KT 2 1/2SM -RA BR SCT008 SCT036 OVC095 17/16 A3019 RMK AO2 P0001 T01670156
KCHS Gnd/Twr/App Charleston Air Force Base/International Airport (Charleston, US-SC)
kchsNearest METAR:
KCHS 170056Z 19007KT 10SM FEW025 26/24 A3009 RMK AO2 SLP190 OCNL LTGIC DSNT NW CB DSNT NW T02560239
KCLL Gnd/Twr/App Easterwood Field Airport (College Station, US-TX)
kcllNearest METAR:
KCLL 170053Z 35008KT 10SM OVC007 12/12 A3016 RMK AO2 SLP211 T01170117
KCRE Ground/Tower Grand Strand Airport (North Myrtle Beach, US-SC)
kcreNearest METAR:
KCRE 170120Z AUTO 16006KT 10SM VCTS FEW044 BKN080 OVC095 26/24 A3008 RMK AO1 LTG DSNT SW T02560244
F44 CTAF Athens Municipal Airport (Athens, US-TX)
kf44Nearest METAR:
KF44 170115Z AUTO 01007KT 10SM RA OVC008 10/10 A3021 RMK AO2 P0002
KGGG Gnd/Twr East Texas Regional Airport (Longview, US-TX)
kgggNearest METAR:
KGGG 170053Z 03007KT 8SM OVC007 11/11 A3021 RMK AO2 RAE48 SLP229 P0004 T01060106
KGTU Gnd/Twr Georgetown Municipal Airport (Georgetown, US-TX)
kgtuNearest METAR:
KGTU 170056Z 01007G16KT 7SM OVC008 09/08 A3022 RMK AO2 SLP237 T00940083
KHDC De/Gnd/Twr/App/ZHU Hammond Northshore Regional Airport (Hammond, US-LA)
khdcNearest METAR:
KHDC 170115Z AUTO 05006KT 7SM OVC005 21/20 A3009 RMK AO2
KHOU Gnd/Twr/App William P Hobby Airport (Houston, US-TX)
khouNearest METAR:
KHOU 170053Z 36011KT 7SM OVC008 14/13 A3011 RMK AO2 SLP200 T01440128
KHYI Gnd/Twr/Misc San Marcos Municipal Airport (Austin, US-TX)
khyiNearest METAR:
KHYI 170056Z AUTO 10SM OVC009 A3019 RMK AO2 SLPNO FZRANO $
KIAH Tower George Bush Intercontinental/Houston Airport (Houston, US-TX)
kiahNearest METAR:
KIAH 170053Z 34010KT 2SM BR OVC005 14/14 A3012 RMK AO2 SFC VIS 4 SLP200 T01390139
KLYH Ground/Tower Lynchburg Regional Airport/Preston Glenn Field (Lynchburg, US-VA)
klyhNearest METAR:
KLYH 170124Z 01004KT 10SM OVC009 15/13 A3013 RMK AO2 T01500133
KMOR CTAF Moore-Murrell Airport (Morristown, US-TN)
kmorNearest METAR:
KMOR 170115Z AUTO 26003KT 9SM OVC006 15/15 A3015 RMK A01
KMYR Gnd/Twr/App Myrtle Beach International Airport (Myrtle Beach, US-SC)
kmyrNearest METAR:
KMYR 170127Z 19010KT 2 1/2SM +TSRA BR SCT010 BKN021 OVC035 24/23 A3011 RMK AO2 LTG DSNT NE TSB01 P0067
KOGB CTAF Orangeburg Municipal Airport (Orangeburg, US-SC)
kogbNearest METAR:
KOGB 170053Z AUTO 00000KT 10SM OVC070 26/23 A3009 RMK AO2 LTG DSNT SE AND S SLP187 T02560228
KSGR ATIS/ASOS Sugar Land Regional Airport (Houston, US-TX)
ksgrNearest METAR:
KSGR 170053Z AUTO 35010KT 8SM OVC006 14/13 A3011 RMK AO2 SLP200 T01390128
KTME Del/Gnd/Twr/App Houston Executive Airport (Houston, US-TX)
ktmeNearest METAR:
KTME 170115Z AUTO 02008KT 3SM BR BKN005 OVC009 14/14 A3015 RMK AO2
KTUP Ground/Tower Tupelo Regional Airport (Tupelo, US-MS)
ktupNearest METAR:
KTUP 170053Z 33010KT 10SM OVC007 12/11 A3022 RMK AO2 RAE32 CIG 005V010 SLP232 P0002 T01170106
KUOX CTAF/ZME University-Oxford Airport (Oxford, US-MS)
kuoxNearest METAR:
KUOX 170115Z AUTO 01008KT 330V030 9SM -DZ OVC006 10/09 A3025 RMK AO2
MMMX Dep/Center Licenciado Benito Juarez International Airport (Mexico City, Mexico)
WX MAP UNAVAILABLENearest METAR:
MMMX 170049Z 31008KT 7SM BKN020CB OVC080 18/12 A3021 TEMPO 5SM TSRA RMK 60105 8/96/ HZY OCNL LTGICCC NW OCNL DROPS
MSLP Gnd/Twr/App/Center Monsenor Oscar Arnulfo Romero International Airport (San Salvador, El Salvador)
WX MAP UNAVAILABLENearest METAR:
MSLP 170050Z VRB02KT 7000 -RA SCT012 FEW037CB BKN054 25/24 Q1009 A2979 NOSIG RMK CB LTG SE S SW NW BR
PASC CTAF/Unicom/AFIS/App Deadhorse Airport (Deadhorse, US-AK)
WX MAP UNAVAILABLENearest METAR:
PASC 170053Z 08023G36KT 8SM BLSN BR OVC007 M01/M03 A2954 RMK AO2 PK WND 08037/0035 SLP004 I1000 T10111028
UNOO Gnd/Tower/App Omsk Airport (Omsk, Russia)
WX MAP UNAVAILABLENearest METAR:
UNOO 170100Z 27003MPS 0250 0200E R25/0650N FZFG VV002 M06/M06 Q1019 R25/CLRD60 NOSIG RMK QBB060 OBST OBSC QFE756
USTR Gnd/Twr/App Roshchino International Airport (Tyumen, Russia)
WX MAP UNAVAILABLENearest METAR:
USTR 170100Z 21004MPS 9999 OVC007 01/00 Q1007 R21/290060 TEMPO 2000 SNRA VV005 RMK QFE746/0995
KHUA Tower Redstone Army Airfield (Huntsville, US-AL)
khuaNearest METAR:
KHUA 162007Z AUTO 01007KT 5/8SM R17/3000FT -RA BR OVC004 13/13 A3017 RMK AO2 OVC V BKN SLP217